Terminal Aerodrome Forecast
Issued by NWS

Home | Current Version | Previous Version | Text Only | Print | Product List | Glossary On
Versions: 1 2 3 4 5 6 7 8 9 10 11 12 13 14 15
000
FTUS44 KLZK 092300
TAFHOT
TAF
KHOT 092320Z 1000/1024 VRB03KT P6SM SCT250
      TEMPO 1009/1012 5SM BR
     FM101500 14005KT P6SM SCT040 PROB30 1018/1024 TSRA BKN040CB=

USA.gov is the U.S. government's official web portal to all federal, state and local government web resources and services.